Terminal Aerodrome Forecast
Issued by NWS Grand Forks, ND

Home | Current Version | Previous Version | Graphics & Text | Print | Product List | Glossary On
Versions: 1 2 3 4 5 6 7 8 9 10 11 12 13 14 15 16 17 18 19 20 21 22 23
000
FTUS43 KFGF 260500
TAFFAR
TAF
KFAR 260537Z 2606/2706 01013KT P6SM OVC025
      TEMPO 2606/2608 1SM -SN OVC020
     FM260800 36017KT 3SM -SN OVC025
     FM261300 35017KT P6SM SCT025
     FM261500 36015KT P6SM FEW020=

USA.gov is the U.S. government's official web portal to all federal, state and local government web resources and services.